sensor_id;sensor_type;location;lat;lon;timestamp;temperature;humidity
78886;DHT22;68269;52.514;5.722;2023-04-03T00:01:47;6.40;58.70
78886;DHT22;68269;52.514;5.722;2023-04-03T00:04:16;6.40;58.70
78886;DHT22;68269;52.514;5.722;2023-04-03T00:06:46;6.30;58.70
78886;DHT22;68269;52.514;5.722;2023-04-03T00:09:15;6.30;58.70
78886;DHT22;68269;52.514;5.722;2023-04-03T00:11:45;6.30;58.70
78886;DHT22;68269;52.514;5.722;2023-04-03T00:14:14;6.30;58.70
78886;DHT22;68269;52.514;5.722;2023-04-03T00:16:46;6.30;58.70
78886;DHT22;68269;52.514;5.722;2023-04-03T00:19:16;6.30;58.70
78886;DHT22;68269;52.514;5.722;2023-04-03T00:21:45;6.30;58.70
78886;DHT22;68269;52.514;5.722;2023-04-03T00:24:15;6.20;58.70
78886;DHT22;68269;52.514;5.722;2023-04-03T00:26:44;6.20;58.70
78886;DHT22;68269;52.514;5.722;2023-04-03T00:29:13;6.20;58.70
78886;DHT22;68269;52.514;5.722;2023-04-03T00:31:43;6.10;58.70
78886;DHT22;68269;52.514;5.722;2023-04-03T00:34:15;6.10;58.80
78886;DHT22;68269;52.514;5.722;2023-04-03T00:36:44;6.10;58.80
78886;DHT22;68269;52.514;5.722;2023-04-03T00:39:14;6.10;58.90
78886;DHT22;68269;52.514;5.722;2023-04-03T00:41:43;6.00;58.80
78886;DHT22;68269;52.514;5.722;2023-04-03T00:45:21;6.00;58.90
78886;DHT22;68269;52.514;5.722;2023-04-03T00:47:16;6.00;58.90
78886;DHT22;68269;52.514;5.722;2023-04-03T00:49:46;6.00;58.90
78886;DHT22;68269;52.514;5.722;2023-04-03T00:52:17;6.00;58.80
78886;DHT22;68269;52.514;5.722;2023-04-03T00:54:49;5.90;58.90
78886;DHT22;68269;52.514;5.722;2023-04-03T00:57:19;5.90;58.90
78886;DHT22;68269;52.514;5.722;2023-04-03T00:59:51;5.90;58.90
78886;DHT22;68269;52.514;5.722;2023-04-03T01:02:25;5.90;58.90
78886;DHT22;68269;52.514;5.722;2023-04-03T01:04:55;5.80;59.00
78886;DHT22;68269;52.514;5.722;2023-04-03T01:07:27;5.80;59.00
78886;DHT22;68269;52.514;5.722;2023-04-03T01:10:04;5.70;59.00
78886;DHT22;68269;52.514;5.722;2023-04-03T01:12:35;5.70;59.00
78886;DHT22;68269;52.514;5.722;2023-04-03T01:15:08;5.70;59.00
78886;DHT22;68269;52.514;5.722;2023-04-03T01:17:42;5.60;59.00
78886;DHT22;68269;52.514;5.722;2023-04-03T01:20:40;5.60;59.00
78886;DHT22;68269;52.514;5.722;2023-04-03T01:23:30;5.60;59.00
78886;DHT22;68269;52.514;5.722;2023-04-03T01:26:02;5.60;59.00
78886;DHT22;68269;52.514;5.722;2023-04-03T01:28:34;5.50;59.00
78886;DHT22;68269;52.514;5.722;2023-04-03T01:31:11;5.50;59.00
78886;DHT22;68269;52.514;5.722;2023-04-03T01:33:45;5.50;59.00
78886;DHT22;68269;52.514;5.722;2023-04-03T01:36:17;5.50;59.00
78886;DHT22;68269;52.514;5.722;2023-04-03T01:38:47;5.50;59.10
78886;DHT22;68269;52.514;5.722;2023-04-03T01:41:16;5.40;59.10
78886;DHT22;68269;52.514;5.722;2023-04-03T01:43:47;5.40;59.10
78886;DHT22;68269;52.514;5.722;2023-04-03T01:46:17;5.30;59.10
78886;DHT22;68269;52.514;5.722;2023-04-03T01:48:50;5.30;59.20
78886;DHT22;68269;52.514;5.722;2023-04-03T01:51:19;5.30;59.20
78886;DHT22;68269;52.514;5.722;2023-04-03T01:53:48;5.30;59.20
78886;DHT22;68269;52.514;5.722;2023-04-03T01:56:17;5.30;59.20
78886;DHT22;68269;52.514;5.722;2023-04-03T01:58:47;5.30;59.20
78886;DHT22;68269;52.514;5.722;2023-04-03T02:01:17;5.20;59.20
78886;DHT22;68269;52.514;5.722;2023-04-03T02:03:50;5.20;59.20
78886;DHT22;68269;52.514;5.722;2023-04-03T02:06:19;5.10;59.20
78886;DHT22;68269;52.514;5.722;2023-04-03T02:08:48;5.10;59.30
78886;DHT22;68269;52.514;5.722;2023-04-03T02:11:18;5.10;59.20
78886;DHT22;68269;52.514;5.722;2023-04-03T02:13:47;5.10;59.30
78886;DHT22;68269;52.514;5.722;2023-04-03T02:16:16;5.10;59.20
78886;DHT22;68269;52.514;5.722;2023-04-03T02:18:45;5.10;59.30
78886;DHT22;68269;52.514;5.722;2023-04-03T02:21:17;5.00;59.30
78886;DHT22;68269;52.514;5.722;2023-04-03T02:23:48;5.00;59.30
78886;DHT22;68269;52.514;5.722;2023-04-03T02:26:19;5.00;59.30
78886;DHT22;68269;52.514;5.722;2023-04-03T02:28:48;5.00;59.30
78886;DHT22;68269;52.514;5.722;2023-04-03T02:31:17;5.00;59.30
78886;DHT22;68269;52.514;5.722;2023-04-03T02:33:48;5.00;59.30
78886;DHT22;68269;52.514;5.722;2023-04-03T02:36:20;5.00;59.30
78886;DHT22;68269;52.514;5.722;2023-04-03T02:38:54;5.00;59.40
78886;DHT22;68269;52.514;5.722;2023-04-03T02:41:24;4.90;59.30
78886;DHT22;68269;52.514;5.722;2023-04-03T02:44:00;4.90;59.40
78886;DHT22;68269;52.514;5.722;2023-04-03T02:46:29;4.80;59.40
78886;DHT22;68269;52.514;5.722;2023-04-03T02:48:59;4.80;59.40
78886;DHT22;68269;52.514;5.722;2023-04-03T02:51:31;4.70;59.50
78886;DHT22;68269;52.514;5.722;2023-04-03T02:54:01;4.70;59.50
78886;DHT22;68269;52.514;5.722;2023-04-03T02:56:33;4.70;59.50
78886;DHT22;68269;52.514;5.722;2023-04-03T02:59:03;4.70;59.50
78886;DHT22;68269;52.514;5.722;2023-04-03T03:01:34;4.70;59.50
78886;DHT22;68269;52.514;5.722;2023-04-03T03:04:04;4.70;59.50
78886;DHT22;68269;52.514;5.722;2023-04-03T03:06:36;4.70;59.50
78886;DHT22;68269;52.514;5.722;2023-04-03T03:09:05;4.70;59.50
78886;DHT22;68269;52.514;5.722;2023-04-03T03:11:34;4.70;59.50
78886;DHT22;68269;52.514;5.722;2023-04-03T03:14:03;4.60;59.60
78886;DHT22;68269;52.514;5.722;2023-04-03T03:16:33;4.70;59.50
78886;DHT22;68269;52.514;5.722;2023-04-03T03:19:02;4.60;59.50
78886;DHT22;68269;52.514;5.722;2023-04-03T03:21:35;4.60;59.50
78886;DHT22;68269;52.514;5.722;2023-04-03T03:24:05;4.50;59.50
78886;DHT22;68269;52.514;5.722;2023-04-03T03:26:35;4.50;59.60
78886;DHT22;68269;52.514;5.722;2023-04-03T03:29:04;4.50;59.60
78886;DHT22;68269;52.514;5.722;2023-04-03T03:31:33;4.50;59.60
78886;DHT22;68269;52.514;5.722;2023-04-03T03:34:03;4.50;59.60
78886;DHT22;68269;52.514;5.722;2023-04-03T03:36:35;4.50;59.60
78886;DHT22;68269;52.514;5.722;2023-04-03T03:39:04;4.50;59.60
78886;DHT22;68269;52.514;5.722;2023-04-03T03:41:33;4.40;59.70
78886;DHT22;68269;52.514;5.722;2023-04-03T03:44:04;4.40;59.70
78886;DHT22;68269;52.514;5.722;2023-04-03T03:46:33;4.40;59.70
78886;DHT22;68269;52.514;5.722;2023-04-03T03:49:03;4.40;59.70
78886;DHT22;68269;52.514;5.722;2023-04-03T03:51:35;4.30;59.70
78886;DHT22;68269;52.514;5.722;2023-04-03T03:54:07;4.30;59.80
78886;DHT22;68269;52.514;5.722;2023-04-03T03:56:36;4.30;59.80
78886;DHT22;68269;52.514;5.722;2023-04-03T03:59:06;4.30;59.80
78886;DHT22;68269;52.514;5.722;2023-04-03T04:01:35;4.30;59.80
78886;DHT22;68269;52.514;5.722;2023-04-03T04:04:04;4.30;59.80
78886;DHT22;68269;52.514;5.722;2023-04-03T04:06:36;4.20;59.80
78886;DHT22;68269;52.514;5.722;2023-04-03T04:09:09;4.20;59.80
78886;DHT22;68269;52.514;5.722;2023-04-03T04:11:38;4.20;59.80
78886;DHT22;68269;52.514;5.722;2023-04-03T04:14:11;4.20;59.80
78886;DHT22;68269;52.514;5.722;2023-04-03T04:16:42;4.20;59.90
78886;DHT22;68269;52.514;5.722;2023-04-03T04:19:16;4.20;59.90
78886;DHT22;68269;52.514;5.722;2023-04-03T04:21:48;4.20;59.90
78886;DHT22;68269;52.514;5.722;2023-04-03T04:24:19;4.10;59.90
78886;DHT22;68269;52.514;5.722;2023-04-03T04:26:51;4.10;59.90
78886;DHT22;68269;52.514;5.722;2023-04-03T04:29:21;4.10;60.00
78886;DHT22;68269;52.514;5.722;2023-04-03T04:31:52;4.10;60.00
78886;DHT22;68269;52.514;5.722;2023-04-03T04:34:22;4.10;60.00
78886;DHT22;68269;52.514;5.722;2023-04-03T04:36:55;4.10;60.00
78886;DHT22;68269;52.514;5.722;2023-04-03T04:39:25;4.00;60.00
78886;DHT22;68269;52.514;5.722;2023-04-03T04:41:57;4.00;60.00
78886;DHT22;68269;52.514;5.722;2023-04-03T04:44:28;4.00;60.00
78886;DHT22;68269;52.514;5.722;2023-04-03T04:46:58;4.00;60.00
78886;DHT22;68269;52.514;5.722;2023-04-03T04:49:27;3.90;60.10
78886;DHT22;68269;52.514;5.722;2023-04-03T04:52:00;3.90;60.00
78886;DHT22;68269;52.514;5.722;2023-04-03T04:54:31;3.90;60.10
78886;DHT22;68269;52.514;5.722;2023-04-03T04:57:02;3.90;60.10
78886;DHT22;68269;52.514;5.722;2023-04-03T04:59:31;3.90;60.10
78886;DHT22;68269;52.514;5.722;2023-04-03T05:02:01;3.90;60.10
78886;DHT22;68269;52.514;5.722;2023-04-03T05:04:31;3.80;60.10
78886;DHT22;68269;52.514;5.722;2023-04-03T05:07:09;3.70;60.20
78886;DHT22;68269;52.514;5.722;2023-04-03T05:09:38;3.70;60.20
78886;DHT22;68269;52.514;5.722;2023-04-03T05:12:09;3.70;60.20
78886;DHT22;68269;52.514;5.722;2023-04-03T05:14:45;3.70;60.20
78886;DHT22;68269;52.514;5.722;2023-04-03T05:17:14;3.60;60.20
78886;DHT22;68269;52.514;5.722;2023-04-03T05:19:49;3.60;60.20
78886;DHT22;68269;52.514;5.722;2023-04-03T05:22:23;3.60;60.20
78886;DHT22;68269;52.514;5.722;2023-04-03T05:24:56;3.50;60.30
78886;DHT22;68269;52.514;5.722;2023-04-03T05:27:25;3.50;60.30
78886;DHT22;68269;52.514;5.722;2023-04-03T05:29:56;3.50;60.30
78886;DHT22;68269;52.514;5.722;2023-04-03T05:32:26;3.50;60.30
78886;DHT22;68269;52.514;5.722;2023-04-03T05:35:09;3.40;60.30
78886;DHT22;68269;52.514;5.722;2023-04-03T05:37:42;3.40;60.30
78886;DHT22;68269;52.514;5.722;2023-04-03T05:40:12;3.40;60.30
78886;DHT22;68269;52.514;5.722;2023-04-03T05:42:45;3.40;60.30
78886;DHT22;68269;52.514;5.722;2023-04-03T05:45:15;3.40;60.30
78886;DHT22;68269;52.514;5.722;2023-04-03T05:47:45;3.40;60.30
78886;DHT22;68269;52.514;5.722;2023-04-03T05:50:14;3.50;60.40
78886;DHT22;68269;52.514;5.722;2023-04-03T05:52:48;3.50;60.40
78886;DHT22;68269;52.514;5.722;2023-04-03T05:55:18;3.50;60.40
78886;DHT22;68269;52.514;5.722;2023-04-03T05:57:47;3.50;60.30
78886;DHT22;68269;52.514;5.722;2023-04-03T06:00:18;3.50;60.40
78886;DHT22;68269;52.514;5.722;2023-04-03T06:02:56;3.50;60.30
78886;DHT22;68269;52.514;5.722;2023-04-03T06:05:25;3.50;60.30
78886;DHT22;68269;52.514;5.722;2023-04-03T06:07:57;3.50;60.30
78886;DHT22;68269;52.514;5.722;2023-04-03T06:10:27;3.50;60.30
78886;DHT22;68269;52.514;5.722;2023-04-03T06:12:56;3.60;60.30
78886;DHT22;68269;52.514;5.722;2023-04-03T06:15:25;3.60;60.20
78886;DHT22;68269;52.514;5.722;2023-04-03T06:17:55;3.60;60.30
78886;DHT22;68269;52.514;5.722;2023-04-03T06:20:24;3.60;60.20
78886;DHT22;68269;52.514;5.722;2023-04-03T06:22:56;3.70;60.30
78886;DHT22;68269;52.514;5.722;2023-04-03T06:25:27;3.70;60.30
78886;DHT22;68269;52.514;5.722;2023-04-03T06:27:58;3.80;60.20
78886;DHT22;68269;52.514;5.722;2023-04-03T06:30:27;3.80;60.20
78886;DHT22;68269;52.514;5.722;2023-04-03T06:32:56;3.90;60.30
78886;DHT22;68269;52.514;5.722;2023-04-03T06:35:25;3.90;60.30
78886;DHT22;68269;52.514;5.722;2023-04-03T06:37:59;3.90;60.20
78886;DHT22;68269;52.514;5.722;2023-04-03T06:40:30;3.90;60.30
78886;DHT22;68269;52.514;5.722;2023-04-03T06:42:59;3.90;60.30
78886;DHT22;68269;52.514;5.722;2023-04-03T06:45:28;3.90;60.40
78886;DHT22;68269;52.514;5.722;2023-04-03T06:47:58;3.90;60.30
78886;DHT22;68269;52.514;5.722;2023-04-03T06:50:27;3.90;60.40
78886;DHT22;68269;52.514;5.722;2023-04-03T06:52:59;4.00;60.30
78886;DHT22;68269;52.514;5.722;2023-04-03T06:55:30;4.00;60.30
78886;DHT22;68269;52.514;5.722;2023-04-03T06:57:59;4.00;60.30
78886;DHT22;68269;52.514;5.722;2023-04-03T07:00:28;4.00;60.40
78886;DHT22;68269;52.514;5.722;2023-04-03T07:02:57;4.10;60.40
78886;DHT22;68269;52.514;5.722;2023-04-03T07:05:27;4.10;60.40
78886;DHT22;68269;52.514;5.722;2023-04-03T07:07:59;4.20;60.40
78886;DHT22;68269;52.514;5.722;2023-04-03T07:10:28;4.20;60.40
78886;DHT22;68269;52.514;5.722;2023-04-03T07:12:58;4.20;60.40
78886;DHT22;68269;52.514;5.722;2023-04-03T07:15:27;4.30;60.40
78886;DHT22;68269;52.514;5.722;2023-04-03T07:17:57;4.30;60.40
78886;DHT22;68269;52.514;5.722;2023-04-03T07:20:26;4.30;60.40
78886;DHT22;68269;52.514;5.722;2023-04-03T07:22:56;4.40;60.40
78886;DHT22;68269;52.514;5.722;2023-04-03T07:25:28;4.40;60.40
78886;DHT22;68269;52.514;5.722;2023-04-03T07:27:58;4.50;60.40
78886;DHT22;68269;52.514;5.722;2023-04-03T07:30:27;4.50;60.40
78886;DHT22;68269;52.514;5.722;2023-04-03T07:32:57;4.50;60.30
78886;DHT22;68269;52.514;5.722;2023-04-03T07:35:27;4.60;60.40
78886;DHT22;68269;52.514;5.722;2023-04-03T07:37:56;4.70;60.40
78886;DHT22;68269;52.514;5.722;2023-04-03T07:40:28;4.70;60.30
78886;DHT22;68269;52.514;5.722;2023-04-03T07:42:57;4.80;60.30
78886;DHT22;68269;52.514;5.722;2023-04-03T07:45:26;4.90;60.30
78886;DHT22;68269;52.514;5.722;2023-04-03T07:47:56;4.90;60.30
78886;DHT22;68269;52.514;5.722;2023-04-03T07:50:25;5.00;60.30
78886;DHT22;68269;52.514;5.722;2023-04-03T07:52:56;5.10;60.20
78886;DHT22;68269;52.514;5.722;2023-04-03T07:55:28;5.10;60.20
78886;DHT22;68269;52.514;5.722;2023-04-03T07:57:57;5.20;60.20
78886;DHT22;68269;52.514;5.722;2023-04-03T08:00:26;5.20;60.20
78886;DHT22;68269;52.514;5.722;2023-04-03T08:02:56;5.20;60.20
78886;DHT22;68269;52.514;5.722;2023-04-03T08:05:25;5.30;60.20
78886;DHT22;68269;52.514;5.722;2023-04-03T08:07:55;5.30;60.20
78886;DHT22;68269;52.514;5.722;2023-04-03T08:10:24;5.40;60.20
78886;DHT22;68269;52.514;5.722;2023-04-03T08:12:56;5.50;60.20
78886;DHT22;68269;52.514;5.722;2023-04-03T08:15:25;5.50;60.10
78886;DHT22;68269;52.514;5.722;2023-04-03T08:17:54;5.50;60.20
78886;DHT22;68269;52.514;5.722;2023-04-03T08:20:24;5.60;60.10
78886;DHT22;68269;52.514;5.722;2023-04-03T08:22:53;5.60;60.10
78886;DHT22;68269;52.514;5.722;2023-04-03T08:25:24;5.70;60.10
78886;DHT22;68269;52.514;5.722;2023-04-03T08:27:58;5.70;60.00
78886;DHT22;68269;52.514;5.722;2023-04-03T08:30:28;5.80;60.00
78886;DHT22;68269;52.514;5.722;2023-04-03T08:32:57;5.90;60.00
78886;DHT22;68269;52.514;5.722;2023-04-03T08:35:29;6.00;60.00
78886;DHT22;68269;52.514;5.722;2023-04-03T08:37:58;6.10;59.90
78886;DHT22;68269;52.514;5.722;2023-04-03T08:40:28;6.20;59.80
78886;DHT22;68269;52.514;5.722;2023-04-03T08:43:09;6.20;59.80
78886;DHT22;68269;52.514;5.722;2023-04-03T08:45:50;6.30;59.70
78886;DHT22;68269;52.514;5.722;2023-04-03T08:48:23;6.30;59.70
78886;DHT22;68269;52.514;5.722;2023-04-03T08:50:58;6.40;59.60
78886;DHT22;68269;52.514;5.722;2023-04-03T08:53:32;6.50;59.60
78886;DHT22;68269;52.514;5.722;2023-04-03T08:56:06;6.50;59.50
78886;DHT22;68269;52.514;5.722;2023-04-03T08:58:44;6.60;59.50
78886;DHT22;68269;52.514;5.722;2023-04-03T09:01:20;6.70;59.40
78886;DHT22;68269;52.514;5.722;2023-04-03T09:03:50;6.80;59.40
78886;DHT22;68269;52.514;5.722;2023-04-03T09:06:21;6.80;59.30
78886;DHT22;68269;52.514;5.722;2023-04-03T09:08:55;6.90;59.20
78886;DHT22;68269;52.514;5.722;2023-04-03T09:11:40;7.00;59.20
78886;DHT22;68269;52.514;5.722;2023-04-03T09:14:17;7.00;59.10
78886;DHT22;68269;52.514;5.722;2023-04-03T09:16:54;7.10;59.00
78886;DHT22;68269;52.514;5.722;2023-04-03T09:19:33;7.20;59.00
78886;DHT22;68269;52.514;5.722;2023-04-03T09:22:13;7.20;58.90
78886;DHT22;68269;52.514;5.722;2023-04-03T09:24:47;7.40;58.90
78886;DHT22;68269;52.514;5.722;2023-04-03T09:27:18;7.40;58.90
78886;DHT22;68269;52.514;5.722;2023-04-03T09:29:53;7.50;58.80
78886;DHT22;68269;52.514;5.722;2023-04-03T09:32:26;7.50;58.70
78886;DHT22;68269;52.514;5.722;2023-04-03T09:34:58;7.60;58.70
78886;DHT22;68269;52.514;5.722;2023-04-03T09:37:37;7.70;58.70
78886;DHT22;68269;52.514;5.722;2023-04-03T09:40:29;7.80;58.60
78886;DHT22;68269;52.514;5.722;2023-04-03T09:43:01;7.80;58.50
78886;DHT22;68269;52.514;5.722;2023-04-03T09:45:35;7.90;58.60
78886;DHT22;68269;52.514;5.722;2023-04-03T09:48:08;8.00;58.50
78886;DHT22;68269;52.514;5.722;2023-04-03T09:50:38;8.00;58.40
78886;DHT22;68269;52.514;5.722;2023-04-03T09:53:27;8.10;58.40
78886;DHT22;68269;52.514;5.722;2023-04-03T09:55:57;8.20;58.30
78886;DHT22;68269;52.514;5.722;2023-04-03T09:58:29;8.30;58.30
78886;DHT22;68269;52.514;5.722;2023-04-03T10:01:03;8.30;58.20
78886;DHT22;68269;52.514;5.722;2023-04-03T10:03:34;8.40;58.10
78886;DHT22;68269;52.514;5.722;2023-04-03T10:06:21;8.50;58.20
78886;DHT22;68269;52.514;5.722;2023-04-03T10:08:59;8.50;57.90
78886;DHT22;68269;52.514;5.722;2023-04-03T10:11:30;8.60;58.00
78886;DHT22;68269;52.514;5.722;2023-04-03T10:14:02;8.60;58.00
78886;DHT22;68269;52.514;5.722;2023-04-03T10:16:41;8.70;57.90
78886;DHT22;68269;52.514;5.722;2023-04-03T10:19:32;8.80;57.80
78886;DHT22;68269;52.514;5.722;2023-04-03T10:22:08;8.90;57.60
78886;DHT22;68269;52.514;5.722;2023-04-03T10:24:52;8.90;57.70
78886;DHT22;68269;52.514;5.722;2023-04-03T10:27:35;8.90;57.60
78886;DHT22;68269;52.514;5.722;2023-04-03T10:30:21;9.00;57.50
78886;DHT22;68269;52.514;5.722;2023-04-03T10:33:08;9.00;57.40
78886;DHT22;68269;52.514;5.722;2023-04-03T10:35:44;9.00;57.30
78886;DHT22;68269;52.514;5.722;2023-04-03T10:38:23;9.00;57.20
78886;DHT22;68269;52.514;5.722;2023-04-03T10:40:59;9.20;57.10
78886;DHT22;68269;52.514;5.722;2023-04-03T10:43:38;9.20;57.00
78886;DHT22;68269;52.514;5.722;2023-04-03T10:46:14;9.20;56.90
78886;DHT22;68269;52.514;5.722;2023-04-03T10:49:01;9.30;56.80
78886;DHT22;68269;52.514;5.722;2023-04-03T10:51:38;9.40;56.60
78886;DHT22;68269;52.514;5.722;2023-04-03T10:54:11;9.40;56.60
78886;DHT22;68269;52.514;5.722;2023-04-03T10:56:44;9.40;56.60
78886;DHT22;68269;52.514;5.722;2023-04-03T10:59:20;9.50;56.70
78886;DHT22;68269;52.514;5.722;2023-04-03T11:01:55;9.50;56.50
78886;DHT22;68269;52.514;5.722;2023-04-03T11:04:31;9.60;56.50
78886;DHT22;68269;52.514;5.722;2023-04-03T11:07:09;9.70;56.40
78886;DHT22;68269;52.514;5.722;2023-04-03T11:09:42;9.70;56.40
78886;DHT22;68269;52.514;5.722;2023-04-03T11:12:15;9.70;56.30
78886;DHT22;68269;52.514;5.722;2023-04-03T11:14:47;9.80;56.30
78886;DHT22;68269;52.514;5.722;2023-04-03T11:17:25;9.80;56.20
78886;DHT22;68269;52.514;5.722;2023-04-03T11:20:04;9.90;56.10
78886;DHT22;68269;52.514;5.722;2023-04-03T11:22:37;10.00;56.00
78886;DHT22;68269;52.514;5.722;2023-04-03T11:25:15;10.10;56.00
78886;DHT22;68269;52.514;5.722;2023-04-03T11:27:51;10.10;55.90
78886;DHT22;68269;52.514;5.722;2023-04-03T11:30:27;10.10;55.80
78886;DHT22;68269;52.514;5.722;2023-04-03T11:36:12;10.30;55.60
78886;DHT22;68269;52.514;5.722;2023-04-03T11:38:44;10.30;55.70
78886;DHT22;68269;52.514;5.722;2023-04-03T11:41:15;10.40;55.60
78886;DHT22;68269;52.514;5.722;2023-04-03T11:43:56;10.40;55.50
78886;DHT22;68269;52.514;5.722;2023-04-03T11:46:51;10.50;55.40
78886;DHT22;68269;52.514;5.722;2023-04-03T11:52:59;10.70;55.40
78886;DHT22;68269;52.514;5.722;2023-04-03T11:55:54;10.80;55.40
78886;DHT22;68269;52.514;5.722;2023-04-03T11:58:25;10.90;55.40
78886;DHT22;68269;52.514;5.722;2023-04-03T12:00:57;10.90;55.40
78886;DHT22;68269;52.514;5.722;2023-04-03T12:04:05;11.00;55.20
78886;DHT22;68269;52.514;5.722;2023-04-03T12:07:00;11.10;55.10
78886;DHT22;68269;52.514;5.722;2023-04-03T12:12:34;11.10;55.20
78886;DHT22;68269;52.514;5.722;2023-04-03T12:15:21;11.20;55.10
78886;DHT22;68269;52.514;5.722;2023-04-03T12:17:50;11.30;55.00
78886;DHT22;68269;52.514;5.722;2023-04-03T12:23:30;11.40;54.70
78886;DHT22;68269;52.514;5.722;2023-04-03T12:26:20;11.50;54.80
78886;DHT22;68269;52.514;5.722;2023-04-03T12:28:53;11.50;54.70
78886;DHT22;68269;52.514;5.722;2023-04-03T12:31:25;11.70;54.70
78886;DHT22;68269;52.514;5.722;2023-04-03T12:34:18;11.80;54.70
78886;DHT22;68269;52.514;5.722;2023-04-03T12:36:57;11.90;54.50
78886;DHT22;68269;52.514;5.722;2023-04-03T12:39:57;12.00;54.70
78886;DHT22;68269;52.514;5.722;2023-04-03T12:45:21;12.10;54.70
78886;DHT22;68269;52.514;5.722;2023-04-03T12:47:52;12.20;54.70
78886;DHT22;68269;52.514;5.722;2023-04-03T12:50:24;12.30;54.60
78886;DHT22;68269;52.514;5.722;2023-04-03T12:53:00;12.20;54.50
78886;DHT22;68269;52.514;5.722;2023-04-03T12:55:33;12.30;54.40
78886;DHT22;68269;52.514;5.722;2023-04-03T12:58:14;12.30;54.30
78886;DHT22;68269;52.514;5.722;2023-04-03T13:00:44;12.30;54.20
78886;DHT22;68269;52.514;5.722;2023-04-03T13:03:23;12.30;54.20
78886;DHT22;68269;52.514;5.722;2023-04-03T13:05:55;12.30;54.20
78886;DHT22;68269;52.514;5.722;2023-04-03T13:08:26;12.30;54.30
78886;DHT22;68269;52.514;5.722;2023-04-03T13:11:01;12.50;54.20
78886;DHT22;68269;52.514;5.722;2023-04-03T13:13:31;12.50;54.00
78886;DHT22;68269;52.514;5.722;2023-04-03T13:16:08;12.50;54.00
78886;DHT22;68269;52.514;5.722;2023-04-03T13:18:38;12.50;53.90
78886;DHT22;68269;52.514;5.722;2023-04-03T13:21:15;12.50;53.90
78886;DHT22;68269;52.514;5.722;2023-04-03T13:23:48;12.50;53.70
78886;DHT22;68269;52.514;5.722;2023-04-03T13:26:22;12.50;53.70
78886;DHT22;68269;52.514;5.722;2023-04-03T13:28:52;12.50;53.60
78886;DHT22;68269;52.514;5.722;2023-04-03T13:31:26;12.50;53.50
78886;DHT22;68269;52.514;5.722;2023-04-03T13:34:02;12.60;53.40
78886;DHT22;68269;52.514;5.722;2023-04-03T13:36:33;12.70;53.40
78886;DHT22;68269;52.514;5.722;2023-04-03T13:39:07;12.80;53.30
78886;DHT22;68269;52.514;5.722;2023-04-03T13:41:53;12.90;53.20
78886;DHT22;68269;52.514;5.722;2023-04-03T13:44:32;12.90;53.10
78886;DHT22;68269;52.514;5.722;2023-04-03T13:47:16;13.00;52.90
78886;DHT22;68269;52.514;5.722;2023-04-03T13:49:58;13.00;52.90
78886;DHT22;68269;52.514;5.722;2023-04-03T13:52:31;13.10;52.90
78886;DHT22;68269;52.514;5.722;2023-04-03T13:55:11;13.10;52.80
78886;DHT22;68269;52.514;5.722;2023-04-03T13:57:58;13.20;52.80
78886;DHT22;68269;52.514;5.722;2023-04-03T14:00:32;13.10;52.70
78886;DHT22;68269;52.514;5.722;2023-04-03T14:03:01;13.10;52.70
78886;DHT22;68269;52.514;5.722;2023-04-03T14:05:31;13.10;52.70
78886;DHT22;68269;52.514;5.722;2023-04-03T14:08:00;13.20;52.60
78886;DHT22;68269;52.514;5.722;2023-04-03T14:10:30;13.30;52.50
78886;DHT22;68269;52.514;5.722;2023-04-03T14:13:02;13.30;52.40
78886;DHT22;68269;52.514;5.722;2023-04-03T14:15:32;13.50;52.30
78886;DHT22;68269;52.514;5.722;2023-04-03T14:18:02;13.50;52.10
78886;DHT22;68269;52.514;5.722;2023-04-03T14:20:31;13.50;52.20
78886;DHT22;68269;52.514;5.722;2023-04-03T14:23:00;13.50;52.10
78886;DHT22;68269;52.514;5.722;2023-04-03T14:25:29;13.60;52.00
78886;DHT22;68269;52.514;5.722;2023-04-03T14:28:06;13.70;52.00
78886;DHT22;68269;52.514;5.722;2023-04-03T14:30:41;13.70;51.90
78886;DHT22;68269;52.514;5.722;2023-04-03T14:33:13;13.60;51.80
78886;DHT22;68269;52.514;5.722;2023-04-03T14:35:43;13.50;51.80
78886;DHT22;68269;52.514;5.722;2023-04-03T14:38:24;13.50;51.90
78886;DHT22;68269;52.514;5.722;2023-04-03T14:40:53;13.70;51.90
78886;DHT22;68269;52.514;5.722;2023-04-03T14:43:25;13.90;51.70
78886;DHT22;68269;52.514;5.722;2023-04-03T14:45:55;14.00;51.40
78886;DHT22;68269;52.514;5.722;2023-04-03T14:48:26;14.10;51.40
78886;DHT22;68269;52.514;5.722;2023-04-03T14:50:56;14.30;51.10
78886;DHT22;68269;52.514;5.722;2023-04-03T14:53:25;14.40;50.90
78886;DHT22;68269;52.514;5.722;2023-04-03T14:55:57;14.40;50.90
78886;DHT22;68269;52.514;5.722;2023-04-03T14:58:29;14.30;50.80
78886;DHT22;68269;52.514;5.722;2023-04-03T15:00:59;14.20;50.70
78886;DHT22;68269;52.514;5.722;2023-04-03T15:03:28;14.30;50.70
78886;DHT22;68269;52.514;5.722;2023-04-03T15:05:58;14.20;50.70
78886;DHT22;68269;52.514;5.722;2023-04-03T15:08:28;14.30;50.50
78886;DHT22;68269;52.514;5.722;2023-04-03T15:10:58;14.50;50.40
78886;DHT22;68269;52.514;5.722;2023-04-03T15:13:30;14.40;50.40
78886;DHT22;68269;52.514;5.722;2023-04-03T15:15:59;14.40;50.30
78886;DHT22;68269;52.514;5.722;2023-04-03T15:18:35;14.40;50.30
78886;DHT22;68269;52.514;5.722;2023-04-03T15:21:06;14.50;50.30
78886;DHT22;68269;52.514;5.722;2023-04-03T15:23:35;14.60;50.30
78886;DHT22;68269;52.514;5.722;2023-04-03T15:26:04;14.60;50.20
78886;DHT22;68269;52.514;5.722;2023-04-03T15:28:39;14.70;50.20
78886;DHT22;68269;52.514;5.722;2023-04-03T15:31:10;14.60;50.10
78886;DHT22;68269;52.514;5.722;2023-04-03T15:33:39;14.60;50.20
78886;DHT22;68269;52.514;5.722;2023-04-03T15:36:09;14.70;50.00
78886;DHT22;68269;52.514;5.722;2023-04-03T15:38:38;14.80;49.90
78886;DHT22;68269;52.514;5.722;2023-04-03T15:41:07;14.70;49.80
78886;DHT22;68269;52.514;5.722;2023-04-03T15:43:39;14.70;49.80
78886;DHT22;68269;52.514;5.722;2023-04-03T15:46:09;14.60;49.70
78886;DHT22;68269;52.514;5.722;2023-04-03T15:48:38;14.60;49.70
78886;DHT22;68269;52.514;5.722;2023-04-03T15:51:07;14.80;49.60
78886;DHT22;68269;52.514;5.722;2023-04-03T15:53:36;15.00;49.50
78886;DHT22;68269;52.514;5.722;2023-04-03T15:56:06;15.20;49.30
78886;DHT22;68269;52.514;5.722;2023-04-03T15:58:35;15.20;49.20
78886;DHT22;68269;52.514;5.722;2023-04-03T16:01:09;15.10;49.20
78886;DHT22;68269;52.514;5.722;2023-04-03T16:03:40;15.00;49.40
78886;DHT22;68269;52.514;5.722;2023-04-03T16:06:11;15.10;49.40
78886;DHT22;68269;52.514;5.722;2023-04-03T16:08:41;15.00;49.30
78886;DHT22;68269;52.514;5.722;2023-04-03T16:11:10;15.00;49.40
78886;DHT22;68269;52.514;5.722;2023-04-03T16:13:40;14.90;49.50
78886;DHT22;68269;52.514;5.722;2023-04-03T16:16:12;14.90;49.60
78886;DHT22;68269;52.514;5.722;2023-04-03T16:18:41;14.80;49.70
78886;DHT22;68269;52.514;5.722;2023-04-03T16:21:13;14.80;49.70
78886;DHT22;68269;52.514;5.722;2023-04-03T16:23:44;14.80;49.70
78886;DHT22;68269;52.514;5.722;2023-04-03T16:26:14;14.80;49.50
78886;DHT22;68269;52.514;5.722;2023-04-03T16:28:44;14.80;49.50
78886;DHT22;68269;52.514;5.722;2023-04-03T16:31:16;14.80;49.40
78886;DHT22;68269;52.514;5.722;2023-04-03T16:33:45;15.00;49.30